AQQ10 IFIS: Internet Flight Information System
logo dgac
Miércoles 10 de Agosto del 2022
Buscar por aerodromo o helipuerto
Ingrese nombre de aeródromo, localidad o designador OACI:
METAR del 10-08-2022 a las 17:00 UTC
Para mayor información visite www.meteochile.cl
METAR SCIC 101700Z VRB03KT 8000 NSC 15/06 Q1018
Viento: dirección variable, velocidad 3 nudos
Visibilidad: 8000 metros
Sin nubes bajo los 5000 pies o bajo del MSA (Mínimo de Seguridad del Aeródromo)
Temperatura: 15 °C
Rocío: 6 °C
Humedad_relativa: 55%
Presión: 1018 hPa
METAR del 10-08-2022 a las 16:00 UTC
Para mayor información visite www.meteochile.cl
METAR SCIC 101600Z 17004KT 8000 NSC 13/06 Q1018
Viento: dirección 170 grados, velocidad 4 nudos
Visibilidad: 8000 metros
Sin nubes bajo los 5000 pies o bajo del MSA (Mínimo de Seguridad del Aeródromo)
Temperatura: 13 °C
Rocío: 6 °C
Humedad_relativa: 62%
Presión: 1018 hPa
METAR del 10-08-2022 a las 15:00 UTC
Para mayor información visite www.meteochile.cl
METAR SCIC 101500Z VRB02KT 7000 NSC 11/06 Q1018
Viento: dirección variable, velocidad 2 nudos
Visibilidad: 7000 metros
Sin nubes bajo los 5000 pies o bajo del MSA (Mínimo de Seguridad del Aeródromo)
Temperatura: 11 °C
Rocío: 6 °C
Humedad_relativa: 71%
Presión: 1018 hPa
METAR del 10-08-2022 a las 14:00 UTC
Para mayor información visite www.meteochile.cl
METAR SCIC 101400Z 02003KT 5000 HZ NSC 08/06 Q1018
Viento: dirección 020 grados, velocidad 3 nudos
Visibilidad: 5000 metros
Bruma
Sin nubes bajo los 5000 pies o bajo del MSA (Mínimo de Seguridad del Aeródromo)
Temperatura: 8 °C
Rocío: 6 °C
Humedad_relativa: 87%
Presión: 1018 hPa
METAR del 10-08-2022 a las 13:00 UTC
Para mayor información visite www.meteochile.cl
METAR SCIC 101300Z 35002KT 5000 BR NSC 05/04 Q1017
Viento: dirección 350 grados, velocidad 2 nudos
Visibilidad: 5000 metros
Neblina
Sin nubes bajo los 5000 pies o bajo del MSA (Mínimo de Seguridad del Aeródromo)
Temperatura: 5 °C
Rocío: 4 °C
Humedad_relativa: 93%
Presión: 1017 hPa
SPECI del 10-08-2022 a las 12:25 UTC
Para mayor información visite www.meteochile.cl
SPECI SCIC 101225Z AUTO VRB01KT //// R/////// // NCD 05/05 Q1017
Viento: dirección variable, velocidad 1 nudos
Temperatura: 5 °C
Rocío: 5 °C
Humedad_relativa: 100%
Presión: 1017 hPa
METAR del 10-08-2022 a las 12:00 UTC
Para mayor información visite www.meteochile.cl
METAR SCIC 101200Z AUTO 00000KT //// R/////// // NCD 03/03 Q1017
Temperatura: 3 °C
Rocío: 3 °C
Humedad_relativa: 100%
Presión: 1017 hPa
METAR del 10-08-2022 a las 11:00 UTC
Para mayor información visite www.meteochile.cl
METAR SCIC 101100Z AUTO VRB02KT //// R/////// // NCD 03/03 Q1016
Viento: dirección variable, velocidad 2 nudos
Temperatura: 3 °C
Rocío: 3 °C
Humedad_relativa: 100%
Presión: 1016 hPa
METAR del 10-08-2022 a las 10:00 UTC
Para mayor información visite www.meteochile.cl
METAR SCIC 101000Z AUTO 00000KT //// R/////// // NCD 03/03 Q1015
Temperatura: 3 °C
Rocío: 3 °C
Humedad_relativa: 100%
Presión: 1015 hPa
METAR del 10-08-2022 a las 09:00 UTC
Para mayor información visite www.meteochile.cl
METAR SCIC 100900Z AUTO 02003KT //// R/////// // NCD 04/04 Q1015
Viento: dirección 020 grados, velocidad 3 nudos
Temperatura: 4 °C
Rocío: 4 °C
Humedad_relativa: 100%
Presión: 1015 hPa